Time;durP1;ratioP1;P1;durP2;ratioP2;P2;SDS_P1;SDS_P2;PMS_P1;PMS_P2;Temp;Humidity;BMP_temperature;BMP_pressure;BME280_temperature;BME280_humidity;BME280_pressure;Samples;Min_cycle;Max_cycle;Signal;HPM_P1;HPM_P2
2021/12/03 00:00:38;;;;;;;0.60;0.60;;;8.10;99.90;;;;;;4864634;29;20105;-76
2021/12/03 00:03:05;;;;;;;0.65;0.65;;;8.10;99.90;;;;;;4859689;29;20133;-76
2021/12/03 00:05:31;;;;;;;0.60;0.60;;;8.10;99.90;;;;;;4859660;29;20034;-78
2021/12/03 00:07:57;;;;;;;0.63;0.63;;;8.10;99.90;;;;;;4859872;29;20046;-79
2021/12/03 00:10:25;;;;;;;0.80;0.80;;;8.10;99.90;;;;;;4844179;29;20053;-76
2021/12/03 00:12:52;;;;;;;0.63;0.63;;;8.10;99.90;;;;;;4857476;29;20073;-77
2021/12/03 00:15:18;;;;;;;1.00;0.77;;;8.10;99.90;;;;;;4858175;29;20033;-76
2021/12/03 00:17:45;;;;;;;0.70;0.70;;;8.10;99.90;;;;;;4857659;29;20132;-75
2021/12/03 00:20:14;;;;;;;0.68;0.68;;;8.10;99.90;;;;;;4870267;29;20040;-79
2021/12/03 00:22:41;;;;;;;0.60;0.60;;;8.10;99.90;;;;;;4861850;29;20506;-77
2021/12/03 00:25:08;;;;;;;0.80;0.80;;;8.10;99.90;;;;;;4861511;29;20045;-77
2021/12/03 00:27:33;;;;;;;0.70;0.70;;;8.00;99.90;;;;;;4863710;29;20049;-75
2021/12/03 00:29:59;;;;;;;0.65;0.65;;;8.00;99.90;;;;;;4847570;29;20029;-77
2021/12/03 00:32:25;;;;;;;0.68;0.68;;;8.00;99.90;;;;;;4880560;29;20044;-77
2021/12/03 00:34:51;;;;;;;0.70;0.70;;;8.00;99.90;;;;;;4863074;29;20037;-75
2021/12/03 00:37:16;;;;;;;0.90;0.90;;;8.10;99.90;;;;;;4879888;29;20044;-76
2021/12/03 00:39:42;;;;;;;0.70;0.70;;;8.00;99.90;;;;;;4877717;29;20053;-77
2021/12/03 00:42:27;;;;;;;0.70;0.70;;;8.00;99.90;;;;;;5142708;27;20499;-78
2021/12/03 00:44:55;;;;;;;0.80;0.80;;;8.00;99.90;;;;;;5110023;28;20065;-76
2021/12/03 00:47:22;;;;;;;0.65;0.65;;;8.00;99.90;;;;;;5110344;28;20103;-76
2021/12/03 00:49:48;;;;;;;0.75;0.70;;;8.00;99.90;;;;;;5110379;28;20411;-76
2021/12/03 00:52:15;;;;;;;1.52;1.27;;;8.00;99.90;;;;;;5109932;28;20081;-77
2021/12/03 00:54:41;;;;;;;1.30;1.20;;;8.00;99.90;;;;;;5108869;28;20024;-77
2021/12/03 00:57:06;;;;;;;0.85;0.85;;;8.00;99.90;;;;;;5109051;28;20024;-76
2021/12/03 00:59:32;;;;;;;0.65;0.65;;;8.10;99.90;;;;;;5109280;28;20028;-76
2021/12/03 01:01:58;;;;;;;0.70;0.70;;;8.10;99.90;;;;;;5109553;28;20119;-77
2021/12/03 01:04:24;;;;;;;0.68;0.60;;;8.10;99.90;;;;;;5090358;28;20078;-76
2021/12/03 01:06:50;;;;;;;0.60;0.60;;;8.10;99.90;;;;;;5103150;28;20047;-77
2021/12/03 01:09:16;;;;;;;0.70;0.70;;;8.10;99.90;;;;;;5109899;28;20060;-79
2021/12/03 01:11:42;;;;;;;0.85;0.70;;;8.10;99.90;;;;;;5109492;28;20035;-76
2021/12/03 01:14:08;;;;;;;0.93;0.70;;;8.10;99.90;;;;;;5109872;28;20023;-76
2021/12/03 01:16:34;;;;;;;0.60;0.60;;;8.10;99.90;;;;;;5109112;28;20028;-75
2021/12/03 01:19:01;;;;;;;3.33;0.90;;;8.10;99.90;;;;;;5109523;28;20023;-77
2021/12/03 01:21:28;;;;;;;0.75;0.70;;;8.10;99.90;;;;;;5109056;28;20040;-77
2021/12/03 01:23:54;;;;;;;0.60;0.60;;;8.10;99.90;;;;;;5109429;28;20498;-76
2021/12/03 01:26:21;;;;;;;0.70;0.70;;;8.10;99.90;;;;;;5109384;28;20069;-77
2021/12/03 01:28:47;;;;;;;0.60;0.60;;;8.10;99.90;;;;;;5109403;28;20035;-76
2021/12/03 01:31:15;;;;;;;0.70;0.70;;;8.10;99.90;;;;;;5108572;28;20035;-77
2021/12/03 01:33:41;;;;;;;0.75;0.75;;;8.00;99.90;;;;;;5108207;28;20027;-77
2021/12/03 01:36:07;;;;;;;1.38;0.75;;;8.00;99.90;;;;;;5109250;28;20024;-78
2021/12/03 01:38:33;;;;;;;1.20;0.80;;;8.00;99.90;;;;;;5109683;28;20023;-79
2021/12/03 01:40:59;;;;;;;0.57;0.57;;;8.10;99.90;;;;;;5108864;28;20040;-77
2021/12/03 01:43:26;;;;;;;0.70;0.70;;;8.10;99.90;;;;;;5108951;28;20383;-77
2021/12/03 01:45:58;;;;;;;2.60;0.75;;;8.00;99.90;;;;;;5108921;28;20028;-78
2021/12/03 01:48:24;;;;;;;0.82;0.82;;;8.10;99.90;;;;;;5108657;28;20024;-78
2021/12/03 01:50:50;;;;;;;0.93;0.70;;;8.00;99.90;;;;;;5109254;28;20036;-77
2021/12/03 01:53:18;;;;;;;1.08;0.90;;;8.00;99.90;;;;;;5096912;28;20059;-78
2021/12/03 01:55:46;;;;;;;0.70;0.70;;;8.00;99.90;;;;;;5094745;28;20098;-80
2021/12/03 01:58:12;;;;;;;0.70;0.70;;;8.00;99.90;;;;;;5094782;28;20024;-76
2021/12/03 02:00:51;;;;;;;1.05;0.73;;;8.00;99.90;;;;;;5094341;28;20016;-78
2021/12/03 02:03:20;;;;;;;0.80;0.80;;;8.00;99.90;;;;;;5094234;28;20103;-76
2021/12/03 02:05:46;;;;;;;0.60;0.60;;;8.00;99.90;;;;;;5093211;28;20024;-75
2021/12/03 02:08:12;;;;;;;2.22;0.70;;;7.90;99.90;;;;;;5095051;28;20028;-76
2021/12/03 02:10:38;;;;;;;0.98;0.95;;;8.00;99.90;;;;;;5094608;28;20027;-75
2021/12/03 02:13:04;;;;;;;0.70;0.70;;;7.90;99.90;;;;;;5094961;28;20021;-76
2021/12/03 02:15:31;;;;;;;0.60;0.60;;;7.90;99.90;;;;;;5095026;28;20034;-76
2021/12/03 02:17:56;;;;;;;0.70;0.70;;;7.90;99.90;;;;;;5095266;28;20388;-78
2021/12/03 02:20:22;;;;;;;0.70;0.70;;;7.90;99.90;;;;;;5094205;28;20032;-78
2021/12/03 02:22:49;;;;;;;0.70;0.70;;;7.90;99.90;;;;;;5094857;28;20788;-77
2021/12/03 02:25:20;;;;;;;0.70;0.70;;;7.90;99.90;;;;;;5094951;28;20032;-77
2021/12/03 02:27:48;;;;;;;0.70;0.70;;;7.90;99.90;;;;;;5094995;28;20028;-77
2021/12/03 02:30:13;;;;;;;2.42;0.93;;;8.00;99.90;;;;;;5093636;28;20267;-77
2021/12/03 02:32:39;;;;;;;0.70;0.70;;;7.90;99.90;;;;;;5094541;28;20042;-77
2021/12/03 02:35:06;;;;;;;0.70;0.70;;;7.90;99.90;;;;;;5094483;28;20020;-80
2021/12/03 02:37:32;;;;;;;0.80;0.80;;;7.90;99.90;;;;;;5094501;28;20031;-76
2021/12/03 02:39:57;;;;;;;0.77;0.77;;;7.90;99.90;;;;;;5094642;28;20016;-78
2021/12/03 02:42:23;;;;;;;0.70;0.70;;;7.90;99.90;;;;;;5094190;28;20036;-78
2021/12/03 02:44:49;;;;;;;0.80;0.80;;;7.90;99.90;;;;;;5094463;28;20016;-77
2021/12/03 02:47:15;;;;;;;0.70;0.70;;;7.80;99.90;;;;;;5093980;28;20024;-77
2021/12/03 02:49:42;;;;;;;1.42;1.00;;;7.80;99.90;;;;;;5094269;28;20020;-77
2021/12/03 02:52:10;;;;;;;1.70;0.80;;;7.80;99.90;;;;;;5093460;28;20077;-75
2021/12/03 02:54:36;;;;;;;0.80;0.70;;;7.80;99.90;;;;;;5093872;28;20379;-76
2021/12/03 02:57:03;;;;;;;0.65;0.65;;;7.80;99.90;;;;;;5094460;28;20076;-76
2021/12/03 02:59:32;;;;;;;0.60;0.60;;;7.90;99.90;;;;;;5093979;28;20028;-80
2021/12/03 03:01:58;;;;;;;0.70;0.70;;;7.90;99.90;;;;;;5094086;28;20158;-79
2021/12/03 03:04:24;;;;;;;0.70;0.70;;;7.90;99.90;;;;;;5093159;28;20045;-76
2021/12/03 03:06:50;;;;;;;1.10;0.98;;;7.90;99.90;;;;;;5094335;28;20102;-78
2021/12/03 03:09:16;;;;;;;0.68;0.68;;;7.80;99.90;;;;;;5092585;28;20024;-77
2021/12/03 03:11:42;;;;;;;0.80;0.80;;;7.90;99.90;;;;;;5073579;28;20028;-78
2021/12/03 03:14:07;;;;;;;0.77;0.77;;;7.90;99.90;;;;;;5082528;28;20028;-78
2021/12/03 03:16:34;;;;;;;1.30;0.93;;;7.90;99.90;;;;;;5094048;28;20028;-77
2021/12/03 03:19:12;;;;;;;1.38;1.00;;;7.90;99.90;;;;;;5093735;28;20035;-80
2021/12/03 03:21:38;;;;;;;5.28;0.90;;;7.90;99.90;;;;;;5093900;28;20476;-77
2021/12/03 03:24:07;;;;;;;1.52;1.33;;;7.90;99.90;;;;;;5093611;28;20028;-79
2021/12/03 03:26:37;;;;;;;1.25;1.00;;;7.90;99.90;;;;;;5092209;28;20034;-76
2021/12/03 03:29:08;;;;;;;1.67;1.25;;;7.90;99.90;;;;;;5093213;28;20426;-75
2021/12/03 03:31:36;;;;;;;1.95;1.38;;;7.90;99.90;;;;;;5092660;28;20028;-76
2021/12/03 03:34:03;;;;;;;1.00;1.00;;;7.90;99.90;;;;;;5093869;28;20012;-77
2021/12/03 03:36:37;;;;;;;1.08;1.00;;;7.90;99.90;;;;;;5093399;28;20032;-79
2021/12/03 03:39:06;;;;;;;1.00;0.90;;;8.00;99.90;;;;;;5094882;28;20074;-76
2021/12/03 03:41:32;;;;;;;1.50;1.17;;;8.00;99.90;;;;;;5092872;28;20694;-76
2021/12/03 03:43:58;;;;;;;2.45;1.70;;;8.00;99.90;;;;;;5093643;28;20028;-78
2021/12/03 03:46:25;;;;;;;1.63;1.38;;;8.00;99.90;;;;;;5092722;28;20562;-76
2021/12/03 03:48:50;;;;;;;2.70;1.40;;;7.90;99.90;;;;;;5091504;28;20024;-81
2021/12/03 03:51:17;;;;;;;0.90;0.80;;;7.90;99.90;;;;;;5092465;28;20428;-77
2021/12/03 03:53:42;;;;;;;3.50;0.82;;;8.00;99.90;;;;;;5093168;28;20023;-79
2021/12/03 03:56:10;;;;;;;0.80;0.80;;;8.00;99.90;;;;;;5093123;28;20392;-76
2021/12/03 03:58:37;;;;;;;0.90;0.90;;;8.00;99.90;;;;;;5092989;28;20486;-79
2021/12/03 04:01:07;;;;;;;0.90;0.90;;;8.00;99.90;;;;;;5093130;28;20028;-77
2021/12/03 04:03:33;;;;;;;0.75;0.75;;;7.90;99.90;;;;;;5093154;28;20032;-78
2021/12/03 04:05:59;;;;;;;2.47;1.08;;;7.90;99.90;;;;;;5092526;28;20043;-77
2021/12/03 04:08:29;;;;;;;1.27;1.15;;;7.80;99.90;;;;;;5092766;28;20020;-76
2021/12/03 04:10:59;;;;;;;1.30;1.20;;;7.80;99.90;;;;;;5092520;28;20039;-75
2021/12/03 04:13:25;;;;;;;2.15;1.52;;;7.80;99.90;;;;;;5092915;28;20028;-75
2021/12/03 04:15:52;;;;;;;1.10;1.02;;;7.80;99.90;;;;;;5091835;28;20026;-76
2021/12/03 04:18:18;;;;;;;1.25;1.10;;;7.80;99.90;;;;;;5092751;28;20024;-76
2021/12/03 04:20:44;;;;;;;1.92;1.00;;;7.80;99.90;;;;;;5092372;28;20090;-77
2021/12/03 04:23:12;;;;;;;1.05;0.80;;;7.80;99.90;;;;;;5093038;28;20028;-77
2021/12/03 04:25:38;;;;;;;1.00;0.90;;;7.80;99.90;;;;;;5092773;28;20031;-76
2021/12/03 04:28:04;;;;;;;0.90;0.90;;;7.70;99.90;;;;;;5092480;28;20016;-76
2021/12/03 04:30:30;;;;;;;1.27;1.13;;;7.70;99.90;;;;;;5092772;28;20031;-77
2021/12/03 04:32:56;;;;;;;2.50;1.13;;;7.70;99.90;;;;;;5092793;28;20099;-76
2021/12/03 04:35:24;;;;;;;1.45;0.90;;;7.70;99.90;;;;;;5092240;28;20020;-75
2021/12/03 04:37:50;;;;;;;0.90;0.90;;;7.70;99.90;;;;;;5092187;28;20031;-76
2021/12/03 04:40:17;;;;;;;0.90;0.88;;;7.70;99.90;;;;;;5092153;28;20040;-77
2021/12/03 04:42:43;;;;;;;3.35;1.30;;;7.80;99.90;;;;;;5092483;28;20031;-76
2021/12/03 04:45:11;;;;;;;1.08;1.08;;;7.70;99.90;;;;;;5092683;28;20012;-77
2021/12/03 04:47:37;;;;;;;1.30;1.20;;;7.70;99.90;;;;;;5092641;28;20089;-77
2021/12/03 04:50:07;;;;;;;0.90;0.90;;;7.70;99.90;;;;;;5092201;28;20029;-77
2021/12/03 04:52:33;;;;;;;1.17;1.15;;;7.70;99.90;;;;;;5092782;28;20365;-77
2021/12/03 04:54:59;;;;;;;1.30;1.13;;;7.70;99.90;;;;;;5091936;28;20035;-75
2021/12/03 04:57:24;;;;;;;1.02;0.80;;;7.70;99.90;;;;;;5092264;28;20102;-77
2021/12/03 04:59:50;;;;;;;0.80;0.80;;;7.70;99.90;;;;;;5091630;28;20149;-76
2021/12/03 05:02:18;;;;;;;1.05;0.85;;;7.70;99.90;;;;;;5092107;28;20036;-78
2021/12/03 05:04:44;;;;;;;0.70;0.70;;;7.70;99.90;;;;;;5091934;28;20020;-76
2021/12/03 05:09:37;;;;;;;0.85;0.85;;;7.80;99.90;;;;;;5091387;28;20048;-79
2021/12/03 05:12:04;;;;;;;1.77;1.05;;;7.70;99.90;;;;;;5091799;28;20024;-76
2021/12/03 05:14:30;;;;;;;0.80;0.80;;;7.80;99.90;;;;;;5090537;28;20035;-79
2021/12/03 05:16:56;;;;;;;2.13;1.00;;;7.80;99.90;;;;;;5091724;28;20056;-76
2021/12/03 05:19:22;;;;;;;1.35;0.93;;;7.80;99.90;;;;;;5091008;28;20089;-77
2021/12/03 05:21:49;;;;;;;0.90;0.90;;;7.80;99.90;;;;;;5091858;28;20097;-77
2021/12/03 05:24:15;;;;;;;1.65;0.93;;;7.80;99.90;;;;;;5092242;28;20028;-77
2021/12/03 05:26:43;;;;;;;1.38;1.27;;;7.80;99.90;;;;;;5091627;28;20575;-76
2021/12/03 05:29:09;;;;;;;1.48;1.20;;;7.70;99.90;;;;;;5095913;28;20032;-79
2021/12/03 05:31:36;;;;;;;1.20;1.10;;;7.80;99.90;;;;;;5095620;28;20028;-78
2021/12/03 05:34:03;;;;;;;1.90;1.20;;;7.80;99.90;;;;;;5096305;28;20024;-78
2021/12/03 05:36:29;;;;;;;4.93;1.40;;;7.70;99.90;;;;;;5095398;28;20024;-80
2021/12/03 05:38:55;;;;;;;1.73;1.63;;;7.70;99.90;;;;;;5095612;28;20061;-79
2021/12/03 05:41:21;;;;;;;6.50;1.13;;;7.70;99.90;;;;;;5094096;28;20052;-77
2021/12/03 05:43:47;;;;;;;3.30;2.67;;;7.70;99.90;;;;;;5094794;28;20540;-76
2021/12/03 05:46:13;;;;;;;2.40;1.67;;;7.70;99.90;;;;;;5095551;28;20032;-78
2021/12/03 05:48:38;;;;;;;1.30;1.15;;;7.70;99.90;;;;;;5095812;28;20032;-76
2021/12/03 05:51:04;;;;;;;2.03;1.60;;;7.60;99.90;;;;;;5093800;28;20082;-76
2021/12/03 05:53:30;;;;;;;2.03;1.90;;;7.60;99.90;;;;;;5095467;28;20476;-76
2021/12/03 05:55:56;;;;;;;5.07;3.50;;;7.60;99.90;;;;;;5093535;28;20024;-79
2021/12/03 05:58:22;;;;;;;2.30;2.10;;;7.60;99.90;;;;;;5095392;28;20043;-79
2021/12/03 06:00:48;;;;;;;3.20;2.60;;;7.60;99.90;;;;;;5094671;28;20514;-77
2021/12/03 06:03:14;;;;;;;2.38;1.38;;;7.50;99.90;;;;;;5093213;28;20034;-76
2021/12/03 06:05:40;;;;;;;2.30;1.40;;;7.60;99.90;;;;;;5095430;28;20107;-76
2021/12/03 06:08:07;;;;;;;1.05;1.05;;;7.60;99.90;;;;;;5091162;28;20020;-76
2021/12/03 06:10:33;;;;;;;1.20;1.10;;;7.60;99.90;;;;;;5094885;28;20024;-75
2021/12/03 06:12:59;;;;;;;0.80;0.80;;;7.60;99.90;;;;;;5095472;28;20090;-79
2021/12/03 06:15:26;;;;;;;1.20;1.10;;;7.60;99.90;;;;;;5094677;28;20099;-76
2021/12/03 06:17:52;;;;;;;1.58;1.05;;;7.60;99.90;;;;;;5094559;28;20028;-75
2021/12/03 06:20:18;;;;;;;1.58;1.48;;;7.60;99.90;;;;;;5094191;28;20028;-77
2021/12/03 06:22:45;;;;;;;2.25;1.33;;;7.70;99.90;;;;;;5094564;28;20028;-78
2021/12/03 06:25:12;;;;;;;0.85;0.85;;;7.70;99.90;;;;;;5094384;28;20028;-77
2021/12/03 06:27:39;;;;;;;1.33;1.23;;;7.70;99.90;;;;;;5094987;28;20036;-76
2021/12/03 06:30:07;;;;;;;1.25;1.00;;;7.80;99.90;;;;;;5094445;28;20400;-77
2021/12/03 06:32:34;;;;;;;1.80;1.10;;;7.80;99.90;;;;;;5083351;28;20507;-75
2021/12/03 06:35:00;;;;;;;3.30;1.95;;;7.90;99.90;;;;;;5084444;28;20491;-76
2021/12/03 06:37:26;;;;;;;1.45;1.35;;;7.90;99.90;;;;;;5094807;28;20166;-76
2021/12/03 06:39:51;;;;;;;2.60;1.60;;;7.80;99.90;;;;;;5094034;28;20026;-73
2021/12/03 06:42:17;;;;;;;2.00;1.40;;;7.80;99.90;;;;;;5094270;28;20047;-75
2021/12/03 06:44:43;;;;;;;1.48;1.17;;;7.80;99.90;;;;;;5094816;28;20032;-74
2021/12/03 06:47:09;;;;;;;1.55;1.42;;;7.80;99.90;;;;;;5094346;28;20028;-74
2021/12/03 06:49:34;;;;;;;13.52;2.85;;;7.70;99.90;;;;;;5094822;28;20365;-77
2021/12/03 06:52:04;;;;;;;4.22;1.63;;;7.80;99.90;;;;;;5093310;28;20035;-76
2021/12/03 06:54:32;;;;;;;1.70;1.60;;;7.80;99.90;;;;;;5094804;28;20020;-78
2021/12/03 06:56:59;;;;;;;1.25;1.10;;;7.80;99.90;;;;;;5094024;28;20111;-77
2021/12/03 06:59:24;;;;;;;1.50;1.20;;;7.80;99.90;;;;;;5094305;28;20024;-76
2021/12/03 07:01:51;;;;;;;9.38;1.50;;;7.90;99.90;;;;;;5093697;28;20036;-78
2021/12/03 07:04:17;;;;;;;1.30;1.17;;;7.90;99.90;;;;;;5094192;28;20024;-77
2021/12/03 07:06:44;;;;;;;5.38;1.25;;;7.90;99.90;;;;;;5093294;28;20400;-76
2021/12/03 07:09:10;;;;;;;4.72;1.20;;;7.90;99.90;;;;;;5093830;28;20380;-80
2021/12/03 07:11:36;;;;;;;7.97;1.27;;;7.90;99.90;;;;;;5092425;28;20058;-77
2021/12/03 07:14:02;;;;;;;3.30;1.10;;;8.00;99.90;;;;;;5092938;28;20488;-76
2021/12/03 07:16:28;;;;;;;1.10;1.00;;;8.00;99.90;;;;;;5094798;28;20052;-78
2021/12/03 07:18:54;;;;;;;1.40;1.02;;;8.10;99.90;;;;;;5092774;28;20062;-77
2021/12/03 07:21:20;;;;;;;4.10;1.08;;;8.20;99.90;;;;;;5094361;28;20107;-76
2021/12/03 07:23:47;;;;;;;4.05;1.10;;;8.30;99.90;;;;;;5094166;28;20031;-78
2021/12/03 07:26:13;;;;;;;1.15;1.00;;;8.30;99.90;;;;;;5094207;28;20124;-76
2021/12/03 07:28:39;;;;;;;1.23;1.13;;;8.30;99.90;;;;;;5093633;28;20079;-79
2021/12/03 07:31:05;;;;;;;3.63;1.00;;;8.50;99.90;;;;;;5085858;28;20024;-79
2021/12/03 07:33:31;;;;;;;1.08;1.02;;;8.60;99.90;;;;;;5076024;28;20034;-78
2021/12/03 07:35:58;;;;;;;2.30;1.20;;;8.70;99.90;;;;;;5091742;28;20028;-79
2021/12/03 07:38:24;;;;;;;4.25;1.00;;;8.90;99.90;;;;;;5084916;28;20027;-79
2021/12/03 07:40:50;;;;;;;1.73;1.08;;;9.00;99.90;;;;;;5092185;28;20512;-77
2021/12/03 07:43:17;;;;;;;5.38;3.65;;;9.10;99.90;;;;;;5088523;28;20095;-75
2021/12/03 07:45:47;;;;;;;4.53;3.15;;;9.20;99.90;;;;;;5092403;28;20043;-75
2021/12/03 07:48:13;;;;;;;3.13;2.25;;;9.30;99.90;;;;;;5092518;28;20020;-76
2021/12/03 07:50:41;;;;;;;1.58;1.38;;;9.30;99.90;;;;;;5089530;28;20016;-75
2021/12/03 07:53:13;;;;;;;2.80;2.40;;;9.40;99.90;;;;;;5076699;28;20484;-76
2021/12/03 07:55:39;;;;;;;3.08;1.70;;;9.40;99.90;;;;;;5078643;28;20016;-81
2021/12/03 07:58:05;;;;;;;1.63;1.20;;;9.40;99.90;;;;;;5087997;28;20030;-75
2021/12/03 08:00:31;;;;;;;2.88;2.15;;;9.50;99.90;;;;;;5077395;28;20032;-78
2021/12/03 08:02:57;;;;;;;1.85;1.75;;;9.60;99.90;;;;;;5092113;28;20024;-76
2021/12/03 08:05:23;;;;;;;8.00;5.03;;;9.90;99.90;;;;;;5091250;28;20473;-73
2021/12/03 08:07:50;;;;;;;5.78;2.05;;;10.40;99.90;;;;;;5072318;28;20393;-74
2021/12/03 08:10:17;;;;;;;1.20;1.10;;;10.60;99.90;;;;;;5078367;28;20040;-77
2021/12/03 08:12:45;;;;;;;2.85;1.92;;;10.40;99.90;;;;;;5092432;28;20027;-75
2021/12/03 08:15:11;;;;;;;2.42;1.98;;;10.30;99.90;;;;;;5092390;28;20024;-77
2021/12/03 08:17:37;;;;;;;2.58;1.40;;;10.10;99.90;;;;;;5080181;28;20046;-76
2021/12/03 08:20:05;;;;;;;2.28;1.50;;;10.10;99.90;;;;;;5072114;28;20104;-76
2021/12/03 08:22:30;;;;;;;1.77;1.63;;;10.00;99.90;;;;;;5091229;28;20028;-75
2021/12/03 08:24:56;;;;;;;1.15;1.05;;;9.90;99.90;;;;;;5083598;28;20027;-77
2021/12/03 08:27:22;;;;;;;1.50;1.33;;;9.90;99.90;;;;;;5072467;28;20025;-76
2021/12/03 08:29:48;;;;;;;2.00;1.27;;;9.90;99.90;;;;;;5072480;28;20043;-75
2021/12/03 08:32:14;;;;;;;2.17;1.98;;;9.90;99.90;;;;;;5074408;28;20484;-76
2021/12/03 08:34:40;;;;;;;3.45;1.60;;;10.10;99.90;;;;;;5091976;28;20024;-75
2021/12/03 08:37:07;;;;;;;2.47;1.27;;;10.30;99.90;;;;;;5087002;28;20020;-76
2021/12/03 08:39:33;;;;;;;2.35;1.30;;;10.40;99.90;;;;;;5092832;28;20020;-76
2021/12/03 08:41:59;;;;;;;2.53;1.70;;;10.60;99.90;;;;;;5092413;28;20052;-79
2021/12/03 08:44:25;;;;;;;1.58;1.20;;;10.70;99.90;;;;;;5092459;28;20023;-74
2021/12/03 08:46:57;;;;;;;2.50;2.00;;;10.60;99.90;;;;;;5089433;28;20024;-74
2021/12/03 08:49:35;;;;;;;1.95;1.10;;;11.00;99.90;;;;;;5086562;28;20036;-79
2021/12/03 08:57:14;;;;;;;2.72;1.00;;;13.80;99.90;;;;;;5092264;28;20035;-86
2021/12/03 08:59:40;;;;;;;0.73;0.73;;;14.20;99.90;;;;;;5092097;28;20020;-75
2021/12/03 09:02:06;;;;;;;0.75;0.63;;;14.60;99.90;;;;;;5089710;28;20445;-78
2021/12/03 09:04:32;;;;;;;4.10;0.88;;;15.10;99.90;;;;;;5074869;28;20089;-76
2021/12/03 09:06:58;;;;;;;7.13;1.38;;;15.20;99.90;;;;;;5076193;28;20024;-78
2021/12/03 09:09:25;;;;;;;3.03;1.80;;;15.80;99.90;;;;;;5086822;28;20433;-81
2021/12/03 09:11:51;;;;;;;2.40;1.00;;;16.00;99.90;;;;;;5087806;28;20059;-78
2021/12/03 09:14:24;;;;;;;1.70;1.27;;;16.50;99.90;;;;;;5084063;28;20031;-76
2021/12/03 09:17:09;;;;;;;2.60;1.17;;;16.10;99.90;;;;;;5086052;28;20032;-75
2021/12/03 09:20:03;;;;;;;1.60;1.00;;;15.70;99.90;;;;;;5095261;28;20020;-77
2021/12/03 09:25:04;;;;;;;12.57;5.70;;;13.80;99.90;;;;;;5085964;28;20020;-75
2021/12/03 09:27:29;;;;;;;1.25;1.05;;;14.30;99.90;;;;;;5085642;28;20400;-77
2021/12/03 09:29:57;;;;;;;6.00;0.85;;;15.00;99.90;;;;;;5107417;28;20032;-75
2021/12/03 09:32:27;;;;;;;1.48;1.05;;;14.60;99.90;;;;;;5103176;28;20059;-75
2021/12/03 09:34:53;;;;;;;1.15;0.80;;;14.20;99.90;;;;;;5092058;28;20028;-75
2021/12/03 09:37:19;;;;;;;3.15;1.13;;;12.90;99.90;;;;;;5084619;28;20070;-75
2021/12/03 09:39:45;;;;;;;1.38;1.00;;;12.50;99.90;;;;;;5074430;28;20090;-76
2021/12/03 09:42:13;;;;;;;2.35;0.95;;;12.20;99.90;;;;;;5074985;28;20070;-76
2021/12/03 09:44:45;;;;;;;1.98;1.00;;;12.10;99.90;;;;;;5075405;28;20016;-76
2021/12/03 09:47:13;;;;;;;;;;;12.50;99.90;;;;;;5076957;28;20082;-75
2021/12/03 09:49:41;;;;;;;0.65;0.65;;;12.60;99.90;;;;;;5091643;28;20352;-77
2021/12/03 09:54:46;;;;;;;1.70;1.10;;;12.80;99.90;;;;;;5093979;28;20072;-75
2021/12/03 09:57:18;;;;;;;1.13;1.02;;;12.70;99.90;;;;;;5095362;28;20047;-76
2021/12/03 10:00:27;;;;;;;1.35;1.10;;;12.60;99.90;;;;;;5095494;28;20017;-74
2021/12/03 10:19:04;;;;;;;0.77;0.77;;;12.60;99.90;;;;;;5093791;28;20057;-80
2021/12/03 10:30:12;;;;;;;0.70;0.70;;;14.10;99.90;;;;;;5095769;28;20028;-75
2021/12/03 10:41:11;;;;;;;0.82;0.80;;;11.80;99.90;;;;;;5092449;28;20079;-77
2021/12/03 10:49:45;;;;;;;10.43;4.57;;;12.90;99.90;;;;;;5085703;28;20020;-75
2021/12/03 11:55:26;;;;;;;7.95;3.08;;;13.10;99.90;;;;;;5113969;28;20043;-75
2021/12/03 12:27:25;;;;;;;;;;;10.80;99.90;;;;;;5073672;28;20035;-82
2021/12/03 12:32:43;;;;;;;1.55;1.35;;;10.80;99.90;;;;;;5087260;28;20032;-79
2021/12/03 14:23:39;;;;;;;7.32;5.35;;;9.40;99.90;;;;;;5091194;28;20387;-75
2021/12/03 14:38:38;;;;;;;2.28;1.65;;;9.20;99.90;;;;;;5087467;28;20035;-76
2021/12/03 14:55:52;;;;;;;2.65;1.88;;;8.90;99.90;;;;;;5075103;28;20502;-80
2021/12/03 15:11:58;;;;;;;6.13;3.80;;;8.70;99.90;;;;;;5085799;28;20027;-73
2021/12/03 15:25:08;;;;;;;2.85;2.45;;;8.50;99.90;;;;;;5071781;28;20604;-74
2021/12/03 15:35:26;;;;;;;3.28;2.38;;;8.20;99.90;;;;;;5091967;28;20035;-76
2021/12/03 16:05:47;;;;;;;2.25;1.98;;;7.70;99.90;;;;;;5085290;28;20031;-74
2021/12/03 16:15:25;;;;;;;3.80;2.15;;;7.50;99.90;;;;;;5082330;28;20473;-74
2021/12/03 16:20:39;;;;;;;4.60;2.47;;;7.50;99.90;;;;;;5089615;28;20086;-74
2021/12/03 16:54:11;;;;;;;3.42;2.88;;;7.30;99.90;;;;;;5074914;28;20020;-73
2021/12/03 16:56:51;;;;;;;5.90;3.08;;;7.40;99.90;;;;;;5082512;28;20023;-80
2021/12/03 16:59:31;;;;;;;4.45;3.33;;;7.30;99.90;;;;;;5074106;28;20035;-80
2021/12/03 17:12:48;;;;;;;6.10;3.33;;;7.10;99.90;;;;;;5091059;28;20039;-73
2021/12/03 17:58:24;;;;;;;8.70;5.65;;;6.90;99.90;;;;;;5084644;28;20031;-74
2021/12/03 18:48:54;;;;;;;10.95;6.70;;;6.40;99.90;;;;;;5093678;28;20028;-73
2021/12/03 18:54:18;;;;;;;8.38;5.70;;;6.40;99.90;;;;;;5091444;28;20024;-73
2021/12/03 18:59:11;;;;;;;7.18;5.45;;;6.30;99.90;;;;;;5073629;28;20032;-73
2021/12/03 19:01:37;;;;;;;10.18;6.18;;;6.30;99.90;;;;;;5073650;28;20111;-73
2021/12/03 19:04:27;;;;;;;7.43;5.50;;;6.30;99.90;;;;;;5073614;28;20028;-73
2021/12/03 19:09:27;;;;;;;9.02;5.75;;;6.30;99.90;;;;;;5081795;28;20024;-73
2021/12/03 19:14:22;;;;;;;10.35;6.32;;;6.30;99.90;;;;;;5093900;28;20024;-73
2021/12/03 19:16:47;;;;;;;9.45;6.13;;;6.30;99.90;;;;;;5093484;28;20024;-73
2021/12/03 19:19:15;;;;;;;10.63;7.72;;;6.30;99.90;;;;;;5093461;28;20373;-75
2021/12/03 19:21:43;;;;;;;10.15;6.03;;;6.30;99.90;;;;;;5093398;28;20036;-73
2021/12/03 19:24:12;;;;;;;9.45;6.00;;;6.30;99.90;;;;;;5093618;28;20468;-73
2021/12/03 19:26:45;;;;;;;6.60;5.72;;;6.20;99.90;;;;;;5093418;28;20024;-73
2021/12/03 19:29:13;;;;;;;9.88;6.50;;;6.20;99.90;;;;;;5092384;28;20419;-75
2021/12/03 19:31:40;;;;;;;6.57;5.70;;;6.20;99.90;;;;;;5093399;28;20486;-74
2021/12/03 19:34:07;;;;;;;9.10;5.53;;;6.20;99.90;;;;;;5089792;28;20033;-73
2021/12/03 19:36:39;;;;;;;9.75;6.15;;;6.20;99.90;;;;;;5072583;28;20025;-78
2021/12/03 19:39:05;;;;;;;9.25;5.95;;;6.20;99.90;;;;;;5072389;28;20050;-75
2021/12/03 19:44:08;;;;;;;8.98;5.88;;;6.10;99.90;;;;;;5077541;28;20017;-73
2021/12/03 19:46:35;;;;;;;11.63;6.67;;;6.10;99.90;;;;;;5091666;28;20056;-75
2021/12/03 19:51:28;;;;;;;11.25;6.78;;;6.10;99.90;;;;;;5085964;28;20048;-74
2021/12/03 19:54:00;;;;;;;13.77;8.63;;;6.10;99.90;;;;;;5088013;28;20070;-73
2021/12/03 19:56:29;;;;;;;10.93;7.30;;;6.20;99.90;;;;;;5072682;28;20024;-77
2021/12/03 19:59:02;;;;;;;11.38;7.00;;;6.10;99.90;;;;;;5072891;28;20055;-73
2021/12/03 20:01:30;;;;;;;14.95;6.93;;;6.10;99.90;;;;;;5072590;28;20021;-73
2021/12/03 20:03:56;;;;;;;9.80;6.85;;;6.10;99.90;;;;;;5072231;28;20040;-73
2021/12/03 20:06:24;;;;;;;10.18;6.63;;;6.10;99.90;;;;;;5074161;28;20028;-74
2021/12/03 20:08:57;;;;;;;8.35;6.03;;;6.10;99.90;;;;;;5074300;28;20021;-87
2021/12/03 20:11:28;;;;;;;9.90;6.18;;;6.00;99.90;;;;;;5087034;28;20465;-75
2021/12/03 20:13:59;;;;;;;7.78;5.43;;;6.00;99.90;;;;;;5077776;28;20029;-78
2021/12/03 20:16:30;;;;;;;7.00;5.00;;;6.00;99.90;;;;;;5074251;28;20362;-75
2021/12/03 20:19:03;;;;;;;7.95;5.55;;;6.00;99.90;;;;;;5075255;28;20392;-74
2021/12/03 20:21:30;;;;;;;10.27;6.03;;;6.00;99.90;;;;;;5071136;28;20051;-88
2021/12/03 20:28:57;;;;;;;9.10;5.47;;;6.00;99.90;;;;;;5088985;28;20535;-74
2021/12/03 20:31:24;;;;;;;11.13;6.45;;;6.00;99.90;;;;;;5091724;28;20069;-74
2021/12/03 20:34:24;;;;;;;10.27;5.80;;;6.00;99.90;;;;;;5091983;28;20027;-74
2021/12/03 20:39:16;;;;;;;10.30;6.50;;;6.00;99.90;;;;;;5093318;28;20095;-73
2021/12/03 20:42:08;;;;;;;7.60;5.00;;;6.00;99.90;;;;;;5092184;28;20051;-73
2021/12/03 20:49:56;;;;;;;11.27;6.65;;;6.00;99.90;;;;;;5078615;28;20132;-73
2021/12/03 21:10:55;;;;;;;6.45;4.55;;;6.00;99.90;;;;;;5096648;28;20064;-76
2021/12/03 21:13:32;;;;;;;6.32;4.75;;;6.00;99.90;;;;;;5096653;28;20028;-73
2021/12/03 21:16:09;;;;;;;7.68;4.60;;;6.00;99.90;;;;;;5096222;28;20497;-76
2021/12/03 21:18:49;;;;;;;6.15;4.68;;;6.00;99.90;;;;;;5096012;28;20107;-73
2021/12/03 21:23:49;;;;;;;6.90;4.28;;;6.00;99.90;;;;;;5089846;28;20366;-75
2021/12/03 21:26:21;;;;;;;7.63;4.30;;;6.00;99.90;;;;;;5075640;28;20027;-73
2021/12/03 21:31:30;;;;;;;7.18;4.65;;;6.00;99.90;;;;;;5075507;28;20085;-82
2021/12/03 21:42:11;;;;;;;7.70;4.80;;;5.90;99.90;;;;;;5083977;28;20053;-74
2021/12/03 21:44:37;;;;;;;5.80;4.60;;;5.90;99.90;;;;;;5075492;28;20380;-75
2021/12/03 21:47:03;;;;;;;8.98;5.50;;;5.90;99.90;;;;;;5074894;28;20384;-74
2021/12/03 21:49:29;;;;;;;7.38;5.20;;;5.90;99.90;;;;;;5094413;28;20495;-73
2021/12/03 21:51:55;;;;;;;8.15;5.03;;;5.80;99.90;;;;;;5093804;28;20025;-73
2021/12/03 21:54:21;;;;;;;7.45;4.20;;;5.80;99.90;;;;;;5095128;28;20093;-74
2021/12/03 21:56:48;;;;;;;8.25;5.20;;;5.80;99.90;;;;;;5094941;28;20021;-75
2021/12/03 21:59:19;;;;;;;9.60;5.78;;;5.70;99.90;;;;;;5095154;28;20472;-75
2021/12/03 22:01:44;;;;;;;9.80;5.97;;;5.70;99.90;;;;;;5095189;28;20092;-74
2021/12/03 22:04:10;;;;;;;7.95;5.20;;;5.60;99.90;;;;;;5094385;28;20028;-74